sensor_id;sensor_type;location;lat;lon;timestamp;pressure;altitude;pressure_sealevel;temperature;humidity
20350;BME280;10332;50.208;18.988;2023-06-22T00:01:28;98204.63;;;22.33;97.20
20350;BME280;10332;50.208;18.988;2023-06-22T00:03:56;98206.53;;;22.48;96.32
20350;BME280;10332;50.208;18.988;2023-06-22T00:06:23;98221.81;;;22.46;96.37
20350;BME280;10332;50.208;18.988;2023-06-22T00:08:51;98203.91;;;22.40;96.30
20350;BME280;10332;50.208;18.988;2023-06-22T00:11:18;98202.66;;;22.27;97.08
20350;BME280;10332;50.208;18.988;2023-06-22T00:13:47;98200.25;;;22.41;96.55
20350;BME280;10332;50.208;18.988;2023-06-22T00:16:15;98212.97;;;22.30;97.08
20350;BME280;10332;50.208;18.988;2023-06-22T00:18:43;98217.56;;;22.05;98.41
20350;BME280;10332;50.208;18.988;2023-06-22T00:21:14;98221.03;;;22.14;97.90
20350;BME280;10332;50.208;18.988;2023-06-22T00:23:42;98219.41;;;21.97;99.15
20350;BME280;10332;50.208;18.988;2023-06-22T00:26:10;98229.84;;;22.06;98.29
20350;BME280;10332;50.208;18.988;2023-06-22T00:28:39;98226.34;;;22.06;98.30
20350;BME280;10332;50.208;18.988;2023-06-22T00:31:06;98224.38;;;22.08;98.06
20350;BME280;10332;50.208;18.988;2023-06-22T00:33:34;98223.03;;;22.04;98.24
20350;BME280;10332;50.208;18.988;2023-06-22T00:36:01;98225.69;;;22.12;97.19
20350;BME280;10332;50.208;18.988;2023-06-22T00:38:33;98221.38;;;22.11;97.08
20350;BME280;10332;50.208;18.988;2023-06-22T00:41:00;98226.94;;;22.24;96.60
20350;BME280;10332;50.208;18.988;2023-06-22T00:43:30;98225.03;;;22.10;96.75
20350;BME280;10332;50.208;18.988;2023-06-22T00:45:57;98219.75;;;22.02;97.07
20350;BME280;10332;50.208;18.988;2023-06-22T00:48:25;98213.91;;;21.98;97.45
20350;BME280;10332;50.208;18.988;2023-06-22T00:50:53;98218.94;;;21.93;97.20
20350;BME280;10332;50.208;18.988;2023-06-22T00:53:23;98212.59;;;22.02;96.60
20350;BME280;10332;50.208;18.988;2023-06-22T00:55:50;98214.75;;;21.99;96.74
20350;BME280;10332;50.208;18.988;2023-06-22T00:58:23;98224.19;;;22.01;96.47
20350;BME280;10332;50.208;18.988;2023-06-22T01:00:52;98219.41;;;21.97;96.70
20350;BME280;10332;50.208;18.988;2023-06-22T01:03:19;98220.94;;;21.91;96.66
20350;BME280;10332;50.208;18.988;2023-06-22T01:05:49;98227.44;;;21.89;97.10
20350;BME280;10332;50.208;18.988;2023-06-22T01:08:42;98214.59;;;21.92;96.39
20350;BME280;10332;50.208;18.988;2023-06-22T01:11:37;98210.19;;;21.85;96.84
20350;BME280;10332;50.208;18.988;2023-06-22T01:14:16;98209.19;;;21.86;96.72
20350;BME280;10332;50.208;18.988;2023-06-22T01:16:48;98211.50;;;21.80;97.23
20350;BME280;10332;50.208;18.988;2023-06-22T01:19:44;98212.34;;;21.81;97.06
20350;BME280;10332;50.208;18.988;2023-06-22T01:22:17;98207.19;;;21.79;97.20
20350;BME280;10332;50.208;18.988;2023-06-22T01:30:51;98210.00;;;21.86;96.45
20350;BME280;10332;50.208;18.988;2023-06-22T01:33:35;98212.28;;;21.97;96.20
20350;BME280;10332;50.208;18.988;2023-06-22T01:36:05;98210.69;;;21.80;96.95
20350;BME280;10332;50.208;18.988;2023-06-22T01:38:34;98211.81;;;21.94;96.35
20350;BME280;10332;50.208;18.988;2023-06-22T01:41:04;98211.28;;;21.90;96.00
20350;BME280;10332;50.208;18.988;2023-06-22T01:43:32;98212.84;;;21.85;96.41
20350;BME280;10332;50.208;18.988;2023-06-22T01:46:02;98217.47;;;21.82;96.77
20350;BME280;10332;50.208;18.988;2023-06-22T01:48:31;98215.50;;;21.85;96.69
20350;BME280;10332;50.208;18.988;2023-06-22T01:50:59;98225.13;;;21.86;96.41
20350;BME280;10332;50.208;18.988;2023-06-22T01:53:26;98227.09;;;21.83;96.35
20350;BME280;10332;50.208;18.988;2023-06-22T01:55:54;98229.25;;;21.88;96.12
20350;BME280;10332;50.208;18.988;2023-06-22T01:58:27;98222.28;;;21.87;95.78
20350;BME280;10332;50.208;18.988;2023-06-22T02:01:10;98228.25;;;21.89;95.73
20350;BME280;10332;50.208;18.988;2023-06-22T02:03:55;98222.75;;;21.91;95.34
20350;BME280;10332;50.208;18.988;2023-06-22T02:06:31;98226.75;;;21.95;95.54
20350;BME280;10332;50.208;18.988;2023-06-22T02:09:08;98229.69;;;22.00;95.13
20350;BME280;10332;50.208;18.988;2023-06-22T02:11:40;98232.03;;;22.03;95.05
20350;BME280;10332;50.208;18.988;2023-06-22T02:14:08;98240.66;;;22.05;94.79
20350;BME280;10332;50.208;18.988;2023-06-22T02:16:36;98239.00;;;22.04;94.86
20350;BME280;10332;50.208;18.988;2023-06-22T02:19:04;98243.00;;;22.08;94.61
20350;BME280;10332;50.208;18.988;2023-06-22T02:21:34;98252.28;;;22.12;94.46
20350;BME280;10332;50.208;18.988;2023-06-22T02:24:01;98247.97;;;22.11;94.30
20350;BME280;10332;50.208;18.988;2023-06-22T02:26:30;98250.47;;;22.04;94.45
20350;BME280;10332;50.208;18.988;2023-06-22T02:28:57;98243.34;;;21.97;94.82
20350;BME280;10332;50.208;18.988;2023-06-22T02:31:25;98245.03;;;21.90;95.54
20350;BME280;10332;50.208;18.988;2023-06-22T02:34:00;98253.97;;;21.97;94.89
20350;BME280;10332;50.208;18.988;2023-06-22T02:36:28;98250.53;;;21.88;95.33
20350;BME280;10332;50.208;18.988;2023-06-22T02:38:58;98259.31;;;21.97;94.69
20350;BME280;10332;50.208;18.988;2023-06-22T02:41:29;98264.47;;;21.90;95.24
20350;BME280;10332;50.208;18.988;2023-06-22T02:43:56;98260.00;;;21.82;95.35
20350;BME280;10332;50.208;18.988;2023-06-22T02:46:24;98269.50;;;21.85;95.78
20350;BME280;10332;50.208;18.988;2023-06-22T02:48:51;98265.31;;;21.82;95.72
20350;BME280;10332;50.208;18.988;2023-06-22T02:51:19;98264.03;;;21.78;95.60
20350;BME280;10332;50.208;18.988;2023-06-22T02:53:47;98269.00;;;21.73;95.93
20350;BME280;10332;50.208;18.988;2023-06-22T02:56:15;98267.34;;;21.80;95.88
20350;BME280;10332;50.208;18.988;2023-06-22T02:58:42;98276.50;;;21.78;95.78
20350;BME280;10332;50.208;18.988;2023-06-22T03:01:10;98288.63;;;21.72;96.23
20350;BME280;10332;50.208;18.988;2023-06-22T03:03:40;98289.63;;;21.71;96.56
20350;BME280;10332;50.208;18.988;2023-06-22T03:06:08;98295.28;;;21.76;96.21
20350;BME280;10332;50.208;18.988;2023-06-22T03:08:41;98294.59;;;21.74;96.31
20350;BME280;10332;50.208;18.988;2023-06-22T03:11:09;98290.81;;;21.69;96.61
20350;BME280;10332;50.208;18.988;2023-06-22T03:13:36;98284.47;;;21.70;96.48
20350;BME280;10332;50.208;18.988;2023-06-22T03:16:04;98291.91;;;21.82;96.07
20350;BME280;10332;50.208;18.988;2023-06-22T03:18:31;98285.94;;;21.80;96.12
20350;BME280;10332;50.208;18.988;2023-06-22T03:20:59;98296.41;;;21.82;96.18
20350;BME280;10332;50.208;18.988;2023-06-22T03:23:27;98301.53;;;21.83;96.20
20350;BME280;10332;50.208;18.988;2023-06-22T03:25:54;98306.84;;;21.92;95.56
20350;BME280;10332;50.208;18.988;2023-06-22T03:28:22;98307.16;;;21.97;95.66
20350;BME280;10332;50.208;18.988;2023-06-22T03:30:50;98313.78;;;22.01;95.55
20350;BME280;10332;50.208;18.988;2023-06-22T03:33:17;98306.13;;;22.06;95.03
20350;BME280;10332;50.208;18.988;2023-06-22T03:35:45;98302.50;;;22.07;95.17
20350;BME280;10332;50.208;18.988;2023-06-22T03:38:12;98305.31;;;22.14;94.71
20350;BME280;10332;50.208;18.988;2023-06-22T03:40:40;98299.63;;;22.17;94.56
20350;BME280;10332;50.208;18.988;2023-06-22T03:43:07;98292.16;;;22.20;94.32
20350;BME280;10332;50.208;18.988;2023-06-22T03:45:35;98286.28;;;22.25;94.10
20350;BME280;10332;50.208;18.988;2023-06-22T03:48:02;98295.66;;;22.21;94.22
20350;BME280;10332;50.208;18.988;2023-06-22T03:50:30;98293.13;;;22.19;94.47
20350;BME280;10332;50.208;18.988;2023-06-22T03:52:58;98302.44;;;22.23;94.29
20350;BME280;10332;50.208;18.988;2023-06-22T03:55:26;98291.13;;;22.29;93.89
20350;BME280;10332;50.208;18.988;2023-06-22T03:57:53;98299.19;;;22.36;93.63
20350;BME280;10332;50.208;18.988;2023-06-22T04:00:24;98294.84;;;22.43;93.20
20350;BME280;10332;50.208;18.988;2023-06-22T04:02:51;98303.63;;;22.52;92.91
20350;BME280;10332;50.208;18.988;2023-06-22T04:05:19;98309.31;;;22.49;93.41
20350;BME280;10332;50.208;18.988;2023-06-22T04:07:46;98310.03;;;22.34;94.34
20350;BME280;10332;50.208;18.988;2023-06-22T04:10:14;98306.69;;;22.41;94.13
20350;BME280;10332;50.208;18.988;2023-06-22T04:12:44;98295.03;;;22.42;94.24
20350;BME280;10332;50.208;18.988;2023-06-22T04:15:11;98300.53;;;22.40;94.07
20350;BME280;10332;50.208;18.988;2023-06-22T04:17:39;98306.13;;;22.45;93.79
20350;BME280;10332;50.208;18.988;2023-06-22T04:20:07;98302.97;;;22.50;93.53
20350;BME280;10332;50.208;18.988;2023-06-22T04:22:35;98310.09;;;22.57;93.49
20350;BME280;10332;50.208;18.988;2023-06-22T04:25:02;98312.94;;;22.56;93.98
20350;BME280;10332;50.208;18.988;2023-06-22T04:27:30;98319.84;;;22.65;94.06
20350;BME280;10332;50.208;18.988;2023-06-22T04:29:58;98319.59;;;22.52;95.35
20350;BME280;10332;50.208;18.988;2023-06-22T04:32:27;98327.34;;;22.61;95.09
20350;BME280;10332;50.208;18.988;2023-06-22T04:34:55;98323.69;;;22.62;95.31
20350;BME280;10332;50.208;18.988;2023-06-22T04:37:22;98319.00;;;22.64;94.98
20350;BME280;10332;50.208;18.988;2023-06-22T04:39:50;98322.81;;;22.70;94.75
20350;BME280;10332;50.208;18.988;2023-06-22T04:42:17;98320.78;;;22.72;94.55
20350;BME280;10332;50.208;18.988;2023-06-22T04:44:45;98314.41;;;22.81;94.28
20350;BME280;10332;50.208;18.988;2023-06-22T04:47:13;98327.69;;;22.89;94.18
20350;BME280;10332;50.208;18.988;2023-06-22T04:49:40;98325.63;;;23.00;93.66
20350;BME280;10332;50.208;18.988;2023-06-22T04:52:13;98330.91;;;23.08;93.70
20350;BME280;10332;50.208;18.988;2023-06-22T04:54:41;98337.25;;;23.07;93.73
20350;BME280;10332;50.208;18.988;2023-06-22T04:57:15;98342.22;;;23.10;93.59
20350;BME280;10332;50.208;18.988;2023-06-22T04:59:42;98345.53;;;23.12;93.23
20350;BME280;10332;50.208;18.988;2023-06-22T05:02:10;98346.81;;;23.16;93.33
20350;BME280;10332;50.208;18.988;2023-06-22T05:04:38;98340.78;;;23.22;93.27
20350;BME280;10332;50.208;18.988;2023-06-22T05:07:07;98340.72;;;23.30;93.00
20350;BME280;10332;50.208;18.988;2023-06-22T05:09:34;98341.69;;;23.37;92.52
20350;BME280;10332;50.208;18.988;2023-06-22T05:12:02;98342.78;;;23.43;92.42
20350;BME280;10332;50.208;18.988;2023-06-22T05:14:30;98342.69;;;23.51;92.08
20350;BME280;10332;50.208;18.988;2023-06-22T05:16:58;98347.13;;;23.59;91.68
20350;BME280;10332;50.208;18.988;2023-06-22T05:19:26;98343.59;;;23.66;91.39
20350;BME280;10332;50.208;18.988;2023-06-22T05:22:01;98347.84;;;23.75;91.11
20350;BME280;10332;50.208;18.988;2023-06-22T05:24:29;98344.28;;;23.83;90.75
20350;BME280;10332;50.208;18.988;2023-06-22T05:26:56;98341.16;;;23.94;90.61
20350;BME280;10332;50.208;18.988;2023-06-22T05:29:23;98345.81;;;24.07;90.06
20350;BME280;10332;50.208;18.988;2023-06-22T05:31:51;98351.06;;;24.15;90.11
20350;BME280;10332;50.208;18.988;2023-06-22T05:34:18;98357.44;;;24.29;89.92
20350;BME280;10332;50.208;18.988;2023-06-22T05:36:46;98354.84;;;24.50;88.92
20350;BME280;10332;50.208;18.988;2023-06-22T05:39:14;98358.97;;;24.68;88.52
20350;BME280;10332;50.208;18.988;2023-06-22T05:41:42;98361.13;;;24.79;88.36
20350;BME280;10332;50.208;18.988;2023-06-22T05:44:10;98364.59;;;24.94;88.02
20350;BME280;10332;50.208;18.988;2023-06-22T05:46:44;98358.41;;;25.08;87.26
20350;BME280;10332;50.208;18.988;2023-06-22T05:49:12;98358.28;;;25.16;87.33
20350;BME280;10332;50.208;18.988;2023-06-22T05:51:40;98363.31;;;25.26;87.22
20350;BME280;10332;50.208;18.988;2023-06-22T05:54:08;98362.84;;;25.44;86.14
20350;BME280;10332;50.208;18.988;2023-06-22T05:56:36;98365.44;;;25.59;85.99
20350;BME280;10332;50.208;18.988;2023-06-22T05:59:04;98376.72;;;25.75;84.90
20350;BME280;10332;50.208;18.988;2023-06-22T06:01:32;98380.06;;;25.84;85.06
20350;BME280;10332;50.208;18.988;2023-06-22T06:04:04;98387.53;;;25.89;84.85
20350;BME280;10332;50.208;18.988;2023-06-22T06:06:31;98377.44;;;25.91;84.57
20350;BME280;10332;50.208;18.988;2023-06-22T06:08:59;98385.69;;;25.96;84.30
20350;BME280;10332;50.208;18.988;2023-06-22T06:11:27;98380.81;;;25.99;83.89
20350;BME280;10332;50.208;18.988;2023-06-22T06:13:54;98392.97;;;26.02;83.89
20350;BME280;10332;50.208;18.988;2023-06-22T06:16:23;98384.53;;;26.05;83.12
20350;BME280;10332;50.208;18.988;2023-06-22T06:18:50;98387.44;;;26.10;82.88
20350;BME280;10332;50.208;18.988;2023-06-22T06:21:18;98385.50;;;26.25;81.91
20350;BME280;10332;50.208;18.988;2023-06-22T06:23:45;98385.97;;;26.36;81.46
20350;BME280;10332;50.208;18.988;2023-06-22T06:26:14;98395.41;;;26.31;81.95
20350;BME280;10332;50.208;18.988;2023-06-22T06:28:44;98396.81;;;26.27;81.69
20350;BME280;10332;50.208;18.988;2023-06-22T06:31:11;98402.84;;;26.01;82.12
20350;BME280;10332;50.208;18.988;2023-06-22T06:33:39;98399.00;;;26.11;81.63
20350;BME280;10332;50.208;18.988;2023-06-22T06:36:07;98398.41;;;26.15;81.49
20350;BME280;10332;50.208;18.988;2023-06-22T06:38:35;98394.94;;;26.21;81.54
20350;BME280;10332;50.208;18.988;2023-06-22T06:41:03;98387.16;;;26.26;81.50
20350;BME280;10332;50.208;18.988;2023-06-22T06:43:30;98387.59;;;26.37;80.86
20350;BME280;10332;50.208;18.988;2023-06-22T06:45:57;98390.53;;;26.42;80.91
20350;BME280;10332;50.208;18.988;2023-06-22T06:48:25;98389.34;;;26.51;80.42
20350;BME280;10332;50.208;18.988;2023-06-22T06:50:52;98386.28;;;26.54;80.53
20350;BME280;10332;50.208;18.988;2023-06-22T06:53:20;98385.91;;;26.64;80.03
20350;BME280;10332;50.208;18.988;2023-06-22T06:55:47;98376.25;;;26.69;80.09
20350;BME280;10332;50.208;18.988;2023-06-22T06:58:15;98384.31;;;26.82;79.05
20350;BME280;10332;50.208;18.988;2023-06-22T07:00:43;98381.88;;;26.94;78.90
20350;BME280;10332;50.208;18.988;2023-06-22T07:03:11;98381.69;;;26.96;77.81
20350;BME280;10332;50.208;18.988;2023-06-22T07:05:38;98390.22;;;27.19;76.90
20350;BME280;10332;50.208;18.988;2023-06-22T07:08:06;98390.25;;;27.32;76.14
20350;BME280;10332;50.208;18.988;2023-06-22T07:10:33;98394.59;;;27.53;75.59
20350;BME280;10332;50.208;18.988;2023-06-22T07:13:01;98393.59;;;27.61;75.44
20350;BME280;10332;50.208;18.988;2023-06-22T07:15:28;98394.25;;;27.69;75.24
20350;BME280;10332;50.208;18.988;2023-06-22T07:17:56;98396.91;;;27.76;75.28
20350;BME280;10332;50.208;18.988;2023-06-22T07:20:23;98400.22;;;27.78;75.36
20350;BME280;10332;50.208;18.988;2023-06-22T07:22:59;98397.94;;;27.95;74.53
20350;BME280;10332;50.208;18.988;2023-06-22T07:25:26;98402.03;;;28.11;74.45
20350;BME280;10332;50.208;18.988;2023-06-22T07:28:04;98400.81;;;28.07;73.75
20350;BME280;10332;50.208;18.988;2023-06-22T07:30:33;98403.66;;;28.25;73.53
20350;BME280;10332;50.208;18.988;2023-06-22T07:33:02;98407.81;;;28.41;73.27
20350;BME280;10332;50.208;18.988;2023-06-22T07:35:32;98407.31;;;28.57;72.42
20350;BME280;10332;50.208;18.988;2023-06-22T07:38:00;98405.19;;;28.79;71.61
20350;BME280;10332;50.208;18.988;2023-06-22T07:40:32;98410.94;;;28.89;70.50
20350;BME280;10332;50.208;18.988;2023-06-22T07:43:01;98417.16;;;28.90;68.43
20350;BME280;10332;50.208;18.988;2023-06-22T07:45:29;98408.13;;;29.16;68.18
20350;BME280;10332;50.208;18.988;2023-06-22T07:47:57;98418.03;;;29.22;67.13
20350;BME280;10332;50.208;18.988;2023-06-22T07:50:24;98416.50;;;29.32;67.57
20350;BME280;10332;50.208;18.988;2023-06-22T07:52:52;98415.47;;;29.33;67.29
20350;BME280;10332;50.208;18.988;2023-06-22T07:55:19;98424.09;;;29.42;63.91
20350;BME280;10332;50.208;18.988;2023-06-22T07:57:49;98413.25;;;29.55;64.07
20350;BME280;10332;50.208;18.988;2023-06-22T08:00:16;98419.53;;;29.49;62.70
20350;BME280;10332;50.208;18.988;2023-06-22T08:02:46;98414.53;;;29.46;62.62
20350;BME280;10332;50.208;18.988;2023-06-22T08:05:15;98414.34;;;29.48;61.92
20350;BME280;10332;50.208;18.988;2023-06-22T08:07:45;98416.66;;;29.37;61.36
20350;BME280;10332;50.208;18.988;2023-06-22T08:10:15;98420.63;;;29.35;62.05
20350;BME280;10332;50.208;18.988;2023-06-22T08:12:43;98424.69;;;29.44;61.38
20350;BME280;10332;50.208;18.988;2023-06-22T08:15:11;98433.44;;;29.39;61.16
20350;BME280;10332;50.208;18.988;2023-06-22T08:17:44;98430.31;;;29.43;60.31
20350;BME280;10332;50.208;18.988;2023-06-22T08:20:14;98431.59;;;29.33;60.17
20350;BME280;10332;50.208;18.988;2023-06-22T08:22:43;98438.72;;;29.59;59.42
20350;BME280;10332;50.208;18.988;2023-06-22T08:25:11;98436.41;;;29.63;59.42
20350;BME280;10332;50.208;18.988;2023-06-22T08:27:40;98442.19;;;29.66;58.17
20350;BME280;10332;50.208;18.988;2023-06-22T08:30:11;98435.03;;;29.79;59.11
20350;BME280;10332;50.208;18.988;2023-06-22T08:32:39;98449.44;;;29.91;59.38
20350;BME280;10332;50.208;18.988;2023-06-22T08:35:07;98451.59;;;30.07;58.40
20350;BME280;10332;50.208;18.988;2023-06-22T08:37:38;98441.44;;;30.09;58.51
20350;BME280;10332;50.208;18.988;2023-06-22T08:40:09;98445.81;;;30.29;57.66
20350;BME280;10332;50.208;18.988;2023-06-22T08:42:40;98448.69;;;30.52;57.20
20350;BME280;10332;50.208;18.988;2023-06-22T08:45:09;98449.22;;;30.79;57.26
20350;BME280;10332;50.208;18.988;2023-06-22T08:47:37;98449.63;;;30.83;56.99
20350;BME280;10332;50.208;18.988;2023-06-22T08:50:06;98450.31;;;31.08;57.30
20350;BME280;10332;50.208;18.988;2023-06-22T08:52:37;98451.13;;;31.27;56.97
20350;BME280;10332;50.208;18.988;2023-06-22T08:55:06;98457.19;;;31.41;55.13
20350;BME280;10332;50.208;18.988;2023-06-22T08:57:33;98459.13;;;31.33;54.19
20350;BME280;10332;50.208;18.988;2023-06-22T09:00:01;98455.53;;;31.40;54.57
20350;BME280;10332;50.208;18.988;2023-06-22T09:02:28;98457.19;;;31.41;54.36
20350;BME280;10332;50.208;18.988;2023-06-22T09:04:58;98448.28;;;31.52;53.02
20350;BME280;10332;50.208;18.988;2023-06-22T09:07:31;98458.16;;;31.58;51.98
20350;BME280;10332;50.208;18.988;2023-06-22T09:09:59;98454.41;;;31.59;52.19
20350;BME280;10332;50.208;18.988;2023-06-22T09:12:30;98445.25;;;31.60;51.52
20350;BME280;10332;50.208;18.988;2023-06-22T09:15:00;98454.41;;;31.59;51.65
20350;BME280;10332;50.208;18.988;2023-06-22T09:17:28;98452.09;;;31.74;52.07
20350;BME280;10332;50.208;18.988;2023-06-22T09:19:56;98455.44;;;31.88;52.72
20350;BME280;10332;50.208;18.988;2023-06-22T09:22:23;98450.06;;;32.00;52.64
20350;BME280;10332;50.208;18.988;2023-06-22T09:24:56;98438.19;;;32.12;52.65
20350;BME280;10332;50.208;18.988;2023-06-22T09:27:23;98426.09;;;32.15;53.09
20350;BME280;10332;50.208;18.988;2023-06-22T09:29:51;98424.31;;;32.20;53.00
20350;BME280;10332;50.208;18.988;2023-06-22T09:32:18;98422.19;;;32.23;53.68
20350;BME280;10332;50.208;18.988;2023-06-22T09:34:45;98416.09;;;32.27;53.48
20350;BME280;10332;50.208;18.988;2023-06-22T09:37:13;98412.59;;;32.27;52.99
20350;BME280;10332;50.208;18.988;2023-06-22T09:39:41;98409.75;;;32.33;50.51
20350;BME280;10332;50.208;18.988;2023-06-22T09:42:08;98412.94;;;32.30;51.29
20350;BME280;10332;50.208;18.988;2023-06-22T09:44:35;98409.53;;;32.35;51.17
20350;BME280;10332;50.208;18.988;2023-06-22T09:47:04;98411.19;;;32.36;49.19
20350;BME280;10332;50.208;18.988;2023-06-22T09:49:31;98404.00;;;32.18;48.21
20350;BME280;10332;50.208;18.988;2023-06-22T09:52:15;98397.53;;;32.07;48.43
20350;BME280;10332;50.208;18.988;2023-06-22T09:54:43;98394.34;;;31.99;48.27
20350;BME280;10332;50.208;18.988;2023-06-22T09:57:10;98395.78;;;32.13;48.12
20350;BME280;10332;50.208;18.988;2023-06-22T09:59:38;98400.13;;;32.37;48.54
20350;BME280;10332;50.208;18.988;2023-06-22T10:02:07;98397.66;;;32.47;48.26
20350;BME280;10332;50.208;18.988;2023-06-22T10:04:35;98404.22;;;32.52;47.96
20350;BME280;10332;50.208;18.988;2023-06-22T10:07:04;98407.56;;;32.70;47.52
20350;BME280;10332;50.208;18.988;2023-06-22T10:09:31;98397.34;;;32.84;46.83
20350;BME280;10332;50.208;18.988;2023-06-22T10:11:59;98398.59;;;32.93;47.33
20350;BME280;10332;50.208;18.988;2023-06-22T10:14:29;98393.63;;;33.02;46.08
20350;BME280;10332;50.208;18.988;2023-06-22T10:16:57;98389.34;;;33.06;45.80
20350;BME280;10332;50.208;18.988;2023-06-22T10:19:26;98384.47;;;33.20;46.02
20350;BME280;10332;50.208;18.988;2023-06-22T10:21:53;98386.44;;;33.24;45.42
20350;BME280;10332;50.208;18.988;2023-06-22T10:24:22;98391.63;;;33.26;45.28
20350;BME280;10332;50.208;18.988;2023-06-22T10:26:50;98393.53;;;33.25;46.44
20350;BME280;10332;50.208;18.988;2023-06-22T10:29:17;98397.00;;;33.38;45.61
20350;BME280;10332;50.208;18.988;2023-06-22T10:31:45;98387.94;;;33.32;43.25
20350;BME280;10332;50.208;18.988;2023-06-22T10:34:12;98390.84;;;33.14;43.08
20350;BME280;10332;50.208;18.988;2023-06-22T10:36:40;98388.63;;;33.39;44.14
20350;BME280;10332;50.208;18.988;2023-06-22T10:39:07;98380.94;;;33.48;42.54
20350;BME280;10332;50.208;18.988;2023-06-22T10:41:35;98385.06;;;32.93;42.21
20350;BME280;10332;50.208;18.988;2023-06-22T10:44:03;98386.22;;;33.26;42.33
20350;BME280;10332;50.208;18.988;2023-06-22T10:46:30;98381.91;;;33.13;41.57
20350;BME280;10332;50.208;18.988;2023-06-22T10:48:58;98379.16;;;32.96;41.83
20350;BME280;10332;50.208;18.988;2023-06-22T10:51:26;98379.38;;;33.23;42.94
20350;BME280;10332;50.208;18.988;2023-06-22T10:53:55;98380.13;;;33.47;43.46
20350;BME280;10332;50.208;18.988;2023-06-22T10:56:23;98380.28;;;33.57;45.79
20350;BME280;10332;50.208;18.988;2023-06-22T10:58:50;98369.59;;;33.68;42.46
20350;BME280;10332;50.208;18.988;2023-06-22T11:01:18;98373.38;;;33.83;42.95
20350;BME280;10332;50.208;18.988;2023-06-22T11:03:52;98372.06;;;34.03;42.96
20350;BME280;10332;50.208;18.988;2023-06-22T11:06:20;98371.94;;;34.14;43.44
20350;BME280;10332;50.208;18.988;2023-06-22T11:08:47;98369.31;;;34.20;43.36
20350;BME280;10332;50.208;18.988;2023-06-22T11:11:33;98367.75;;;34.24;42.55
20350;BME280;10332;50.208;18.988;2023-06-22T11:14:00;98376.34;;;34.37;42.59
20350;BME280;10332;50.208;18.988;2023-06-22T11:16:28;98370.69;;;34.39;41.18
20350;BME280;10332;50.208;18.988;2023-06-22T11:18:56;98369.03;;;34.38;40.29
20350;BME280;10332;50.208;18.988;2023-06-22T11:21:24;98365.66;;;34.48;40.20
20350;BME280;10332;50.208;18.988;2023-06-22T11:23:51;98361.59;;;34.50;40.87
20350;BME280;10332;50.208;18.988;2023-06-22T11:26:19;98368.94;;;34.33;40.32
20350;BME280;10332;50.208;18.988;2023-06-22T11:28:48;98361.22;;;34.41;40.30
20350;BME280;10332;50.208;18.988;2023-06-22T11:31:16;98360.31;;;34.53;40.56
20350;BME280;10332;50.208;18.988;2023-06-22T11:33:52;98355.28;;;34.66;40.15
20350;BME280;10332;50.208;18.988;2023-06-22T11:36:20;98351.75;;;34.66;38.57
20350;BME280;10332;50.208;18.988;2023-06-22T11:38:47;98353.47;;;34.72;38.77
20350;BME280;10332;50.208;18.988;2023-06-22T11:41:15;98351.31;;;34.74;39.29
20350;BME280;10332;50.208;18.988;2023-06-22T11:43:42;98357.63;;;34.80;39.19
20350;BME280;10332;50.208;18.988;2023-06-22T11:46:10;98350.25;;;34.97;40.69
20350;BME280;10332;50.208;18.988;2023-06-22T11:48:38;98355.69;;;35.02;39.51
20350;BME280;10332;50.208;18.988;2023-06-22T11:51:07;98355.47;;;34.82;38.47
20350;BME280;10332;50.208;18.988;2023-06-22T11:53:35;98351.50;;;34.67;38.09
20350;BME280;10332;50.208;18.988;2023-06-22T11:56:03;98338.38;;;34.81;38.94
20350;BME280;10332;50.208;18.988;2023-06-22T11:58:30;98337.69;;;34.91;40.04
20350;BME280;10332;50.208;18.988;2023-06-22T12:00:58;98340.50;;;35.01;39.78
20350;BME280;10332;50.208;18.988;2023-06-22T12:03:25;98331.06;;;35.09;40.12
20350;BME280;10332;50.208;18.988;2023-06-22T12:05:53;98321.31;;;35.13;40.49
20350;BME280;10332;50.208;18.988;2023-06-22T12:08:21;98323.66;;;34.99;38.99
20350;BME280;10332;50.208;18.988;2023-06-22T12:10:50;98324.53;;;34.83;39.81
20350;BME280;10332;50.208;18.988;2023-06-22T12:13:17;98318.03;;;34.84;39.89
20350;BME280;10332;50.208;18.988;2023-06-22T12:15:45;98320.44;;;34.80;40.38
20350;BME280;10332;50.208;18.988;2023-06-22T12:18:12;98316.94;;;34.85;40.22
20350;BME280;10332;50.208;18.988;2023-06-22T12:20:42;98318.13;;;34.67;40.12
20350;BME280;10332;50.208;18.988;2023-06-22T12:23:09;98310.88;;;34.51;40.09
20350;BME280;10332;50.208;18.988;2023-06-22T12:25:37;98311.50;;;34.36;39.87
20350;BME280;10332;50.208;18.988;2023-06-22T12:28:04;98306.56;;;34.33;40.56
20350;BME280;10332;50.208;18.988;2023-06-22T12:30:35;98305.78;;;34.54;40.47
20350;BME280;10332;50.208;18.988;2023-06-22T12:33:02;98295.66;;;34.71;39.58
20350;BME280;10332;50.208;18.988;2023-06-22T12:35:30;98291.97;;;34.83;40.36
20350;BME280;10332;50.208;18.988;2023-06-22T12:37:58;98293.19;;;34.92;40.48
20350;BME280;10332;50.208;18.988;2023-06-22T12:40:25;98296.97;;;34.91;40.58
20350;BME280;10332;50.208;18.988;2023-06-22T12:42:53;98284.13;;;34.86;38.77
20350;BME280;10332;50.208;18.988;2023-06-22T12:45:20;98292.25;;;34.86;39.98
20350;BME280;10332;50.208;18.988;2023-06-22T12:47:48;98279.41;;;34.98;40.56
20350;BME280;10332;50.208;18.988;2023-06-22T12:50:17;98278.84;;;34.96;39.49
20350;BME280;10332;50.208;18.988;2023-06-22T12:52:45;98270.72;;;35.02;40.59
20350;BME280;10332;50.208;18.988;2023-06-22T12:55:12;98275.22;;;35.18;40.91
20350;BME280;10332;50.208;18.988;2023-06-22T12:57:40;98274.53;;;35.33;40.31
20350;BME280;10332;50.208;18.988;2023-06-22T13:00:08;98278.97;;;35.44;39.75
20350;BME280;10332;50.208;18.988;2023-06-22T13:02:37;98271.97;;;35.53;38.18
20350;BME280;10332;50.208;18.988;2023-06-22T13:05:05;98266.47;;;35.43;39.21